Time;durP1;ratioP1;P1;durP2;ratioP2;P2;SDS_P1;SDS_P2;PMS_P1;PMS_P2;Temp;Humidity;BMP_temperature;BMP_pressure;BME280_temperature;BME280_humidity;BME280_pressure;Samples;Min_cycle;Max_cycle;Signal;HPM_P1;HPM_P2
2022/10/27 14:29:15;;;;;;;31.27;18.88;;;;;;;;;;6171145;23;20532;-74
2022/10/27 14:31:41;;;;;;;27.35;19.63;;;;;;;;;;6153500;23;20095;-73
2022/10/27 14:34:20;;;;;;;27.73;20.15;;;;;;;;;;6178586;23;20016;-73
2022/10/27 14:36:46;;;;;;;28.02;20.80;;;;;;;;;;6179708;23;20055;-73
2022/10/27 14:39:12;;;;;;;34.05;20.63;;;;;;;;;;6179296;23;20013;-73
2022/10/27 14:41:39;;;;;;;24.98;19.42;;;;;;;;;;6178922;23;20013;-73
2022/10/27 14:44:13;;;;;;;22.67;18.42;;;;;;;;;;6152496;23;20021;-73
2022/10/27 14:46:40;;;;;;;19.90;17.52;;;;;;;;;;6178876;23;20013;-73
2022/10/27 14:49:06;;;;;;;23.77;18.52;;;;;;;;;;6153781;23;20020;-73
2022/10/27 14:51:35;;;;;;;21.20;17.77;;;;;;;;;;6153925;23;20029;-73
2022/10/27 14:54:01;;;;;;;25.02;18.45;;;;;;;;;;6181329;23;20017;-74
2022/10/27 14:56:28;;;;;;;24.38;17.73;;;;;;;;;;6154604;23;20192;-74
2022/10/27 14:58:55;;;;;;;19.13;15.65;;;;;;;;;;6149513;23;20099;-74
2022/10/27 15:01:27;;;;;;;13.07;9.23;;;;;;;;;;6177977;23;20454;-75
2022/10/27 15:03:53;;;;;;;17.65;12.80;;;;;;;;;;6178053;23;20020;-74
2022/10/27 15:06:19;;;;;;;15.50;12.98;;;;;;;;;;6150783;23;20020;-73
2022/10/27 15:08:45;;;;;;;20.17;15.57;;;;;;;;;;6177563;23;20103;-73
2022/10/27 15:11:14;;;;;;;22.30;15.02;;;;;;;;;;6103457;23;20019;-73
2022/10/27 15:13:41;;;;;;;19.58;15.38;;;;;;;;;;6153558;23;20017;-73
2022/10/27 15:16:10;;;;;;;18.33;16.27;;;;;;;;;;6179408;23;20009;-73
2022/10/27 15:18:37;;;;;;;23.92;18.02;;;;;;;;;;6179464;23;20461;-73
2022/10/27 15:21:07;;;;;;;21.40;17.13;;;;;;;;;;6153188;23;20637;-73
2022/10/27 15:23:33;;;;;;;23.13;17.90;;;;;;;;;;6153764;23;20117;-73
2022/10/27 15:25:59;;;;;;;24.75;16.02;;;;;;;;;;6179493;23;20423;-73
2022/10/27 15:28:26;;;;;;;26.70;16.42;;;;;;;;;;6179407;23;20099;-73
2022/10/27 15:30:52;;;;;;;27.88;18.85;;;;;;;;;;6152889;23;20053;-73
2022/10/27 15:33:25;;;;;;;23.55;17.73;;;;;;;;;;6179327;23;20053;-73
2022/10/27 15:35:51;;;;;;;22.65;16.67;;;;;;;;;;6179796;23;20468;-73
2022/10/27 15:38:27;;;;;;;18.52;14.15;;;;;;;;;;6178876;23;20104;-73
2022/10/27 15:40:53;;;;;;;25.75;15.65;;;;;;;;;;6128312;23;20041;-73
2022/10/27 15:43:29;;;;;;;25.23;15.10;;;;;;;;;;6179118;23;20108;-73
2022/10/27 15:46:08;;;;;;;21.35;14.55;;;;;;;;;;6128212;23;20013;-73
2022/10/27 15:48:37;;;;;;;20.00;12.35;;;;;;;;;;6179189;23;20505;-73
2022/10/27 15:51:03;;;;;;;28.63;15.57;;;;;;;;;;6152364;23;20012;-74
2022/10/27 15:53:29;;;;;;;32.65;19.33;;;;;;;;;;6178837;23;20023;-73
2022/10/27 15:56:05;;;;;;;23.27;16.10;;;;;;;;;;6178790;23;20044;-74
2022/10/27 15:58:32;;;;;;;18.60;13.50;;;;;;;;;;6179157;23;20592;-73
2022/10/27 16:01:01;;;;;;;34.22;19.92;;;;;;;;;;6178536;23;20043;-73
2022/10/27 16:03:30;;;;;;;30.15;18.63;;;;;;;;;;6178766;23;20036;-73
2022/10/27 16:06:16;;;;;;;23.50;17.08;;;;;;;;;;6178069;23;20068;-73
2022/10/27 16:08:42;;;;;;;21.40;15.23;;;;;;;;;;6178844;23;20067;-73
2022/10/27 16:11:10;;;;;;;28.67;14.48;;;;;;;;;;6179158;23;20095;-73
2022/10/27 16:13:35;;;;;;;23.08;14.73;;;;;;;;;;6153076;23;20017;-73
2022/10/27 16:16:02;;;;;;;25.63;14.80;;;;;;;;;;6152727;23;20446;-73
2022/10/27 16:18:28;;;;;;;25.65;16.27;;;;;;;;;;6152794;23;20480;-73
2022/10/27 16:20:54;;;;;;;33.00;17.90;;;;;;;;;;6179421;23;20019;-73
2022/10/27 16:23:20;;;;;;;10.85;8.10;;;;;;;;;;6178781;23;20052;-73
2022/10/27 16:25:47;;;;;;;28.75;17.50;;;;;;;;;;6153020;23;20013;-73
2022/10/27 16:28:17;;;;;;;26.70;18.15;;;;;;;;;;6150378;23;20017;-73
2022/10/27 16:30:43;;;;;;;29.05;18.23;;;;;;;;;;6178880;23;20052;-73
2022/10/27 16:33:16;;;;;;;34.72;19.88;;;;;;;;;;6153852;23;20028;-73
2022/10/27 16:35:42;;;;;;;32.97;20.23;;;;;;;;;;6184498;23;20016;-73
2022/10/27 16:38:09;;;;;;;27.08;18.38;;;;;;;;;;6187415;23;20043;-73
2022/10/27 16:40:36;;;;;;;25.27;16.73;;;;;;;;;;6164804;23;20009;-73
2022/10/27 16:43:02;;;;;;;29.70;16.33;;;;;;;;;;6182646;23;20100;-73
2022/10/27 16:45:28;;;;;;;31.67;19.05;;;;;;;;;;6153410;23;20044;-73
2022/10/27 16:47:59;;;;;;;37.83;19.98;;;;;;;;;;6179389;23;20379;-74
2022/10/27 16:50:25;;;;;;;34.60;21.10;;;;;;;;;;6129802;23;20012;-73
2022/10/27 16:52:52;;;;;;;32.47;18.75;;;;;;;;;;6152495;23;20017;-73
2022/10/27 16:55:17;;;;;;;22.73;15.35;;;;;;;;;;6179126;23;20013;-74
2022/10/27 16:57:44;;;;;;;31.38;17.25;;;;;;;;;;6151843;23;20017;-73
2022/10/27 17:00:11;;;;;;;21.60;14.68;;;;;;;;;;6152313;23;20035;-73
2022/10/27 17:02:37;;;;;;;18.58;13.48;;;;;;;;;;6179212;23;20013;-73
2022/10/27 17:05:03;;;;;;;18.30;13.05;;;;;;;;;;6153175;23;20477;-73
2022/10/27 17:07:29;;;;;;;18.08;13.13;;;;;;;;;;6173171;23;20013;-76
2022/10/27 17:09:56;;;;;;;20.92;13.85;;;;;;;;;;6149808;23;20013;-79
2022/10/27 17:12:22;;;;;;;25.85;15.50;;;;;;;;;;6177488;23;20040;-76
2022/10/27 17:14:48;;;;;;;16.70;12.80;;;;;;;;;;6126797;23;20024;-77
2022/10/27 17:17:14;;;;;;;16.45;12.35;;;;;;;;;;6177410;23;20088;-78
2022/10/27 17:19:40;;;;;;;20.23;14.77;;;;;;;;;;6126623;23;20504;-76
2022/10/27 17:22:06;;;;;;;17.30;12.88;;;;;;;;;;6151158;23;20024;-77
2022/10/27 17:24:32;;;;;;;19.67;15.00;;;;;;;;;;6177428;23;20549;-77
2022/10/27 17:26:58;;;;;;;16.48;10.90;;;;;;;;;;6177138;23;20013;-77
2022/10/27 17:29:24;;;;;;;24.23;15.10;;;;;;;;;;6177754;23;20032;-77
2022/10/27 17:31:50;;;;;;;20.95;15.27;;;;;;;;;;6152313;23;20048;-76
2022/10/27 17:34:17;;;;;;;21.08;14.10;;;;;;;;;;6178734;23;20017;-76
2022/10/27 17:36:43;;;;;;;17.05;13.45;;;;;;;;;;6152860;23;20036;-75
2022/10/27 17:39:09;;;;;;;16.90;14.02;;;;;;;;;;6178026;23;20413;-74
2022/10/27 17:41:35;;;;;;;16.30;12.30;;;;;;;;;;6178434;23;20061;-76
2022/10/27 17:44:01;;;;;;;18.48;12.10;;;;;;;;;;6179444;23;20044;-75
2022/10/27 17:46:28;;;;;;;16.40;11.85;;;;;;;;;;6178049;23;20522;-76
2022/10/27 17:48:55;;;;;;;19.40;12.52;;;;;;;;;;6178341;23;20020;-75
2022/10/27 17:51:22;;;;;;;17.60;11.95;;;;;;;;;;6179729;23;20009;-74
2022/10/27 17:53:48;;;;;;;15.38;10.23;;;;;;;;;;6153656;23;20044;-75
2022/10/27 17:56:14;;;;;;;16.30;9.85;;;;;;;;;;6153516;23;20013;-76
2022/10/27 17:58:40;;;;;;;16.35;12.13;;;;;;;;;;6153867;23;20020;-75
2022/10/27 18:01:07;;;;;;;19.15;12.23;;;;;;;;;;6178198;23;20013;-76
2022/10/27 18:03:34;;;;;;;19.95;10.77;;;;;;;;;;6151291;23;20152;-74
2022/10/27 18:06:01;;;;;;;17.92;12.10;;;;;;;;;;6151902;23;20442;-74
2022/10/27 18:08:27;;;;;;;16.55;11.98;;;;;;;;;;6178839;23;20458;-75
2022/10/27 18:10:53;;;;;;;20.45;12.15;;;;;;;;;;6178649;23;20009;-74
2022/10/27 18:13:19;;;;;;;19.10;12.02;;;;;;;;;;6151518;23;20105;-74
2022/10/27 18:15:44;;;;;;;20.10;12.88;;;;;;;;;;6180050;23;20044;-75
2022/10/27 18:36:14;;;;;;;15.00;11.25;;;;;;;;;;6230764;22;20268;-76
2022/10/27 18:38:40;;;;;;;14.07;10.25;;;;;;;;;;6251685;23;20008;-75
2022/10/27 18:41:07;;;;;;;20.50;14.43;;;;;;;;;;6246427;23;20051;-78
2022/10/27 18:43:33;;;;;;;18.92;12.60;;;;;;;;;;6246960;23;20031;-77
2022/10/27 18:46:02;;;;;;;23.00;13.20;;;;;;;;;;6248572;23;20448;-75
2022/10/27 18:48:28;;;;;;;13.60;10.15;;;;;;;;;;6246364;23;20145;-76
2022/10/27 18:50:55;;;;;;;17.52;11.20;;;;;;;;;;6248457;23;20722;-76
2022/10/27 18:53:21;;;;;;;20.75;11.82;;;;;;;;;;6221075;23;20032;-75
2022/10/27 18:55:47;;;;;;;13.43;10.02;;;;;;;;;;6249045;23;20031;-75
2022/10/27 18:58:13;;;;;;;12.80;10.57;;;;;;;;;;6251516;23;20027;-76
2022/10/27 19:00:39;;;;;;;15.48;9.68;;;;;;;;;;6252153;23;20015;-73
2022/10/27 19:03:05;;;;;;;15.05;10.43;;;;;;;;;;6250001;22;20015;-76
2022/10/27 19:05:31;;;;;;;14.45;8.48;;;;;;;;;;6246265;22;20638;-75
2022/10/27 19:07:57;;;;;;;16.10;10.45;;;;;;;;;;6245667;23;20099;-76
2022/10/27 19:10:23;;;;;;;11.45;9.68;;;;;;;;;;6245164;23;20023;-75
2022/10/27 19:12:49;;;;;;;14.38;10.02;;;;;;;;;;6246884;22;20485;-77
2022/10/27 19:15:15;;;;;;;16.33;10.73;;;;;;;;;;6246961;23;20012;-77
2022/10/27 19:17:41;;;;;;;18.77;12.15;;;;;;;;;;6248061;23;20482;-74
2022/10/27 19:20:07;;;;;;;16.10;11.27;;;;;;;;;;6248370;23;20038;-75
2022/10/27 19:22:33;;;;;;;15.13;9.07;;;;;;;;;;6246229;23;20016;-75
2022/10/27 19:25:01;;;;;;;17.00;10.63;;;;;;;;;;6248195;22;20012;-74
2022/10/27 19:27:27;;;;;;;15.40;10.00;;;;;;;;;;6247012;23;20016;-75
2022/10/27 19:29:52;;;;;;;11.77;10.40;;;;;;;;;;6245564;23;20027;-75
2022/10/27 19:32:18;;;;;;;14.30;10.63;;;;;;;;;;6214706;23;20012;-77
2022/10/27 19:34:44;;;;;;;16.15;10.68;;;;;;;;;;6242242;23;20023;-77
2022/10/27 19:37:10;;;;;;;15.80;11.52;;;;;;;;;;6242539;23;20491;-74
2022/10/27 19:39:36;;;;;;;12.23;9.88;;;;;;;;;;6241300;23;20015;-78
2022/10/27 19:42:02;;;;;;;13.77;10.45;;;;;;;;;;6240622;23;20016;-77
2022/10/27 19:44:29;;;;;;;15.77;10.88;;;;;;;;;;6241287;23;20014;-77
2022/10/27 19:46:55;;;;;;;15.05;10.82;;;;;;;;;;6216649;23;20337;-79
2022/10/27 19:49:21;;;;;;;18.10;12.50;;;;;;;;;;6217848;23;20058;-79
2022/10/27 19:51:47;;;;;;;16.52;11.15;;;;;;;;;;6145435;23;20008;-80
2022/10/27 19:54:16;;;;;;;20.70;11.68;;;;;;;;;;6217720;23;20015;-80
2022/10/27 19:56:47;;;;;;;17.85;11.95;;;;;;;;;;6216336;23;20023;-79
2022/10/27 19:59:14;;;;;;;17.60;10.93;;;;;;;;;;6217505;23;20019;-78
2022/10/27 20:01:40;;;;;;;18.15;12.15;;;;;;;;;;6214830;23;20018;-78
2022/10/27 20:04:07;;;;;;;14.88;10.73;;;;;;;;;;6165846;23;20016;-79
2022/10/27 20:06:33;;;;;;;15.48;9.77;;;;;;;;;;6189099;23;20086;-79
2022/10/27 20:08:59;;;;;;;17.30;10.40;;;;;;;;;;6191819;23;20016;-81
2022/10/27 20:11:26;;;;;;;19.90;13.13;;;;;;;;;;6215824;23;20039;-80
2022/10/27 20:13:54;;;;;;;17.13;11.40;;;;;;;;;;6242433;23;20012;-81
2022/10/27 20:16:20;;;;;;;15.95;10.98;;;;;;;;;;6214884;23;20463;-78
2022/10/27 20:18:46;;;;;;;15.85;11.00;;;;;;;;;;6213905;23;20056;-79
2022/10/27 20:21:13;;;;;;;17.42;10.82;;;;;;;;;;6213492;23;20012;-78
2022/10/27 20:23:40;;;;;;;21.05;11.15;;;;;;;;;;6245376;23;20034;-82
2022/10/27 20:26:06;;;;;;;16.77;10.55;;;;;;;;;;6249694;23;20008;-80
2022/10/27 20:28:32;;;;;;;14.63;9.10;;;;;;;;;;6246067;23;20103;-79
2022/10/27 20:30:58;;;;;;;13.75;9.90;;;;;;;;;;6214299;23;20569;-77
2022/10/27 20:33:24;;;;;;;14.70;8.75;;;;;;;;;;6239722;23;20070;-78
2022/10/27 20:35:57;;;;;;;21.05;11.10;;;;;;;;;;6240986;23;20098;-77
2022/10/27 20:38:23;;;;;;;14.68;10.18;;;;;;;;;;6214007;23;20023;-79
2022/10/27 20:40:49;;;;;;;16.25;10.60;;;;;;;;;;6215259;23;20475;-74
2022/10/27 20:43:15;;;;;;;19.73;11.00;;;;;;;;;;6240712;23;20012;-74
2022/10/27 20:45:41;;;;;;;18.25;11.68;;;;;;;;;;6212093;23;20020;-75
2022/10/27 20:48:08;;;;;;;23.80;12.18;;;;;;;;;;6238055;23;20016;-73
2022/10/27 20:50:34;;;;;;;18.17;11.68;;;;;;;;;;6186961;23;20019;-72
2022/10/27 20:53:00;;;;;;;22.60;13.27;;;;;;;;;;6238964;23;20019;-72
2022/10/27 20:55:25;;;;;;;18.73;11.52;;;;;;;;;;6238341;23;20497;-72
2022/10/27 20:57:51;;;;;;;24.08;12.32;;;;;;;;;;6238927;23;20464;-73
2022/10/27 21:00:17;;;;;;;20.65;11.85;;;;;;;;;;6238682;23;20008;-78
2022/10/27 21:02:47;;;;;;;23.17;10.75;;;;;;;;;;6211874;23;20413;-77
2022/10/27 21:05:13;;;;;;;19.92;11.55;;;;;;;;;;6238713;23;20062;-77
2022/10/27 21:07:39;;;;;;;21.17;13.35;;;;;;;;;;6162369;23;20498;-77
2022/10/27 21:10:05;;;;;;;19.52;11.13;;;;;;;;;;6239471;23;20019;-79
2022/10/27 21:12:31;;;;;;;17.73;10.43;;;;;;;;;;6239569;23;20012;-78
2022/10/27 21:14:57;;;;;;;11.90;8.90;;;;;;;;;;6239565;23;20012;-77
2022/10/27 21:17:23;;;;;;;17.30;10.32;;;;;;;;;;6212673;23;20539;-78
2022/10/27 21:19:49;;;;;;;25.83;12.57;;;;;;;;;;6187857;23;20011;-79
2022/10/27 21:22:15;;;;;;;22.13;10.95;;;;;;;;;;6212636;23;20012;-78
2022/10/27 21:24:41;;;;;;;26.42;11.65;;;;;;;;;;6239215;23;20016;-80
2022/10/27 21:27:08;;;;;;;23.60;11.13;;;;;;;;;;6213021;23;20046;-78
2022/10/27 21:29:34;;;;;;;23.25;11.55;;;;;;;;;;6213227;23;20030;-79
2022/10/27 21:32:00;;;;;;;14.48;10.13;;;;;;;;;;6213020;23;20008;-76
2022/10/27 21:34:30;;;;;;;19.25;11.93;;;;;;;;;;6189732;23;20019;-77
2022/10/27 21:36:56;;;;;;;17.42;10.60;;;;;;;;;;6240482;23;20027;-77
2022/10/27 21:39:23;;;;;;;15.25;10.35;;;;;;;;;;6189327;23;20487;-78
2022/10/27 21:41:49;;;;;;;16.52;9.77;;;;;;;;;;6211849;23;20062;-77
2022/10/27 21:44:15;;;;;;;13.80;9.40;;;;;;;;;;6239548;23;20008;-77
2022/10/27 21:46:41;;;;;;;10.80;8.73;;;;;;;;;;6212910;23;20018;-76
2022/10/27 21:49:08;;;;;;;16.98;9.55;;;;;;;;;;6239454;23;20460;-77
2022/10/27 21:51:34;;;;;;;11.73;9.32;;;;;;;;;;6213487;23;20015;-79
2022/10/27 21:54:01;;;;;;;25.58;9.77;;;;;;;;;;6239618;23;20057;-78
2022/10/27 21:56:27;;;;;;;17.25;11.23;;;;;;;;;;6186949;23;20016;-76
2022/10/27 21:58:53;;;;;;;15.88;10.50;;;;;;;;;;6212787;23;20066;-79
2022/10/27 22:01:19;;;;;;;14.10;10.63;;;;;;;;;;6239186;23;20011;-80
2022/10/27 22:03:45;;;;;;;18.30;11.50;;;;;;;;;;6238962;23;20046;-79
2022/10/27 22:06:13;;;;;;;22.13;13.27;;;;;;;;;;6239102;23;20507;-78
2022/10/27 22:08:39;;;;;;;19.38;11.35;;;;;;;;;;6212281;23;20036;-77
2022/10/27 22:11:12;;;;;;;18.27;11.50;;;;;;;;;;6189870;23;20016;-79
2022/10/27 22:13:38;;;;;;;18.48;11.20;;;;;;;;;;6212298;23;20016;-80
2022/10/27 22:16:04;;;;;;;20.45;10.35;;;;;;;;;;6212544;23;20024;-79
2022/10/27 22:18:30;;;;;;;13.75;10.80;;;;;;;;;;6238882;23;20485;-80
2022/10/27 22:20:56;;;;;;;15.20;10.40;;;;;;;;;;6212368;23;20459;-79
2022/10/27 22:23:21;;;;;;;11.23;9.05;;;;;;;;;;6238874;23;20460;-78
2022/10/27 22:25:47;;;;;;;10.40;8.65;;;;;;;;;;6212094;23;20012;-78
2022/10/27 22:28:13;;;;;;;10.15;8.68;;;;;;;;;;6212391;23;20095;-78
2022/10/27 22:30:39;;;;;;;11.60;9.45;;;;;;;;;;6238543;23;20016;-78
2022/10/27 22:33:05;;;;;;;15.60;10.38;;;;;;;;;;6212606;23;20091;-78
2022/10/27 22:35:31;;;;;;;18.27;11.07;;;;;;;;;;6238636;23;20020;-79
2022/10/27 22:37:57;;;;;;;15.18;10.70;;;;;;;;;;6212181;23;20023;-77
2022/10/27 22:40:23;;;;;;;12.23;9.57;;;;;;;;;;6238882;23;20038;-77
2022/10/27 22:42:49;;;;;;;13.35;10.45;;;;;;;;;;6212633;23;20087;-80
2022/10/27 22:45:15;;;;;;;13.43;9.43;;;;;;;;;;6239124;23;20012;-78
2022/10/27 22:47:42;;;;;;;15.27;11.80;;;;;;;;;;6239092;23;20663;-77
2022/10/27 22:50:07;;;;;;;16.42;11.27;;;;;;;;;;6212817;23;20460;-78
2022/10/27 22:52:35;;;;;;;18.00;10.93;;;;;;;;;;6240684;23;20031;-77
2022/10/27 22:55:01;;;;;;;15.50;10.32;;;;;;;;;;6242773;23;20020;-79
2022/10/27 22:57:28;;;;;;;11.70;9.18;;;;;;;;;;6255963;23;20053;-79
2022/10/27 22:59:54;;;;;;;16.58;11.43;;;;;;;;;;6255268;23;20099;-79
2022/10/27 23:02:20;;;;;;;17.92;12.55;;;;;;;;;;6198690;23;20062;-79
2022/10/27 23:04:46;;;;;;;18.48;12.70;;;;;;;;;;6213261;23;20046;-79
2022/10/27 23:07:12;;;;;;;14.55;10.82;;;;;;;;;;6189949;23;20019;-79
2022/10/27 23:09:38;;;;;;;13.77;11.07;;;;;;;;;;6215040;23;20020;-79
2022/10/27 23:12:05;;;;;;;15.25;11.55;;;;;;;;;;6241394;23;20012;-79
2022/10/27 23:14:31;;;;;;;13.95;11.18;;;;;;;;;;6241087;23;20012;-76
2022/10/27 23:16:57;;;;;;;14.90;11.07;;;;;;;;;;6240605;23;20012;-78
2022/10/27 23:19:24;;;;;;;18.92;12.02;;;;;;;;;;6240503;23;20015;-79
2022/10/27 23:21:50;;;;;;;13.88;10.93;;;;;;;;;;6241282;23;20012;-80
2022/10/27 23:24:16;;;;;;;16.92;11.20;;;;;;;;;;6239571;23;20042;-81
2022/10/27 23:26:42;;;;;;;22.25;12.23;;;;;;;;;;6243516;23;20019;-78
2022/10/27 23:29:09;;;;;;;17.52;10.65;;;;;;;;;;6190424;23;20016;-79
2022/10/27 23:31:35;;;;;;;18.52;11.15;;;;;;;;;;6240980;23;20040;-80
2022/10/27 23:34:02;;;;;;;13.43;11.00;;;;;;;;;;6188708;23;20593;-80
2022/10/27 23:36:28;;;;;;;18.85;13.85;;;;;;;;;;6240609;23;20020;-80
2022/10/27 23:38:54;;;;;;;20.55;12.07;;;;;;;;;;6241704;23;20700;-80
2022/10/27 23:41:19;;;;;;;17.75;11.73;;;;;;;;;;6241672;23;20046;-80
2022/10/27 23:43:53;;;;;;;17.42;11.27;;;;;;;;;;6214521;23;20097;-78
2022/10/27 23:46:19;;;;;;;15.77;12.05;;;;;;;;;;6214073;23;20012;-78
2022/10/27 23:48:45;;;;;;;20.52;13.23;;;;;;;;;;6214236;23;20463;-79
2022/10/27 23:51:11;;;;;;;17.77;12.05;;;;;;;;;;6189852;23;20012;-78
2022/10/27 23:53:37;;;;;;;23.73;12.70;;;;;;;;;;6214414;23;20019;-79
2022/10/27 23:56:03;;;;;;;22.35;14.02;;;;;;;;;;6214786;23;20066;-79
2022/10/27 23:58:30;;;;;;;21.52;13.10;;;;;;;;;;6242494;23;20008;-81
